Terminal Aerodrome Forecast
Issued by NWS

Home | Current Version | Previous Version | Text Only | Print | Product List | Glossary On
Versions: 1 2 3 4 5 6 7 8 9 10 11 12 13 14
000
FTUS46 KSEW 221130
TAFOLM
TAF
KOLM 221130Z 2212/2312 21004KT P6SM OVC035
      TEMPO 2216/2220 SCT040 BKN060
     FM222000 30006KT P6SM SCT040 BKN070
     FM230100 33006KT P6SM SCT045 OVC100
     FM230900 00000KT P6SM SCT250=

USA.gov is the U.S. government's official web portal to all federal, state and local government web resources and services.